sensor_id;sensor_type;location;lat;lon;timestamp;pressure;altitude;pressure_sealevel;temperature;humidity
49104;BME280;34915;52.926;11.116;2022-08-19T00:01:38;101021.09;;;21.85;91.29
49104;BME280;34915;52.926;11.116;2022-08-19T00:04:11;101022.06;;;22.00;89.13
49104;BME280;34915;52.926;11.116;2022-08-19T00:06:40;101021.03;;;22.09;88.18
49104;BME280;34915;52.926;11.116;2022-08-19T00:09:08;101019.06;;;21.95;89.39
49104;BME280;34915;52.926;11.116;2022-08-19T00:11:35;101013.00;;;21.85;89.94
49104;BME280;34915;52.926;11.116;2022-08-19T00:14:04;101008.31;;;21.79;89.67
49104;BME280;34915;52.926;11.116;2022-08-19T00:16:31;101010.44;;;22.00;89.55
49104;BME280;34915;52.926;11.116;2022-08-19T00:18:57;101004.56;;;21.96;90.15
49104;BME280;34915;52.926;11.116;2022-08-19T00:21:24;101003.50;;;21.97;90.98
49104;BME280;34915;52.926;11.116;2022-08-19T00:23:51;101007.56;;;22.01;90.88
49104;BME280;34915;52.926;11.116;2022-08-19T00:26:16;101016.66;;;22.00;90.01
49104;BME280;34915;52.926;11.116;2022-08-19T00:28:42;101007.06;;;21.98;91.25
49104;BME280;34915;52.926;11.116;2022-08-19T00:31:09;101023.44;;;21.88;92.01
49104;BME280;34915;52.926;11.116;2022-08-19T00:33:35;101016.09;;;21.75;92.27
49104;BME280;34915;52.926;11.116;2022-08-19T00:36:03;101016.78;;;21.61;93.46
49104;BME280;34915;52.926;11.116;2022-08-19T00:38:30;101009.38;;;21.39;95.76
49104;BME280;34915;52.926;11.116;2022-08-19T00:40:55;101013.28;;;21.28;98.94
49104;BME280;34915;52.926;11.116;2022-08-19T00:43:23;101016.50;;;21.16;100.00
49104;BME280;34915;52.926;11.116;2022-08-19T00:45:49;101018.50;;;20.98;100.00
49104;BME280;34915;52.926;11.116;2022-08-19T00:48:17;101020.50;;;20.88;100.00
49104;BME280;34915;52.926;11.116;2022-08-19T00:50:44;101012.75;;;20.77;100.00
49104;BME280;34915;52.926;11.116;2022-08-19T00:53:12;101014.06;;;20.66;100.00
49104;BME280;34915;52.926;11.116;2022-08-19T00:55:42;101009.69;;;20.57;100.00
49104;BME280;34915;52.926;11.116;2022-08-19T00:58:12;101006.94;;;20.49;100.00
49104;BME280;34915;52.926;11.116;2022-08-19T01:00:39;100997.16;;;20.40;100.00
49104;BME280;34915;52.926;11.116;2022-08-19T01:03:08;101004.59;;;20.38;100.00
49104;BME280;34915;52.926;11.116;2022-08-19T01:05:35;101007.94;;;20.48;100.00
49104;BME280;34915;52.926;11.116;2022-08-19T01:08:03;101003.59;;;20.47;100.00
49104;BME280;34915;52.926;11.116;2022-08-19T01:10:33;101015.03;;;20.49;100.00
49104;BME280;34915;52.926;11.116;2022-08-19T01:13:01;101006.63;;;20.52;100.00
49104;BME280;34915;52.926;11.116;2022-08-19T01:15:34;101004.41;;;20.47;100.00
49104;BME280;34915;52.926;11.116;2022-08-19T01:18:05;101016.03;;;20.48;100.00
49104;BME280;34915;52.926;11.116;2022-08-19T01:20:32;100996.19;;;20.41;100.00
49104;BME280;34915;52.926;11.116;2022-08-19T01:22:58;100988.09;;;20.41;100.00
49104;BME280;34915;52.926;11.116;2022-08-19T01:25:30;100982.38;;;20.44;100.00
49104;BME280;34915;52.926;11.116;2022-08-19T01:27:57;100988.81;;;20.51;100.00
49104;BME280;34915;52.926;11.116;2022-08-19T01:30:26;100976.34;;;20.50;100.00
49104;BME280;34915;52.926;11.116;2022-08-19T01:32:53;100976.66;;;20.47;100.00
49104;BME280;34915;52.926;11.116;2022-08-19T01:35:20;100981.19;;;20.46;100.00
49104;BME280;34915;52.926;11.116;2022-08-19T01:37:49;100982.38;;;20.52;100.00
49104;BME280;34915;52.926;11.116;2022-08-19T01:40:17;100976.34;;;20.50;100.00
49104;BME280;34915;52.926;11.116;2022-08-19T01:42:47;100981.13;;;20.72;100.00
49104;BME280;34915;52.926;11.116;2022-08-19T01:45:13;100988.31;;;20.63;100.00
49104;BME280;34915;52.926;11.116;2022-08-19T01:47:38;100990.50;;;20.68;100.00
49104;BME280;34915;52.926;11.116;2022-08-19T01:50:06;100993.59;;;20.73;100.00
49104;BME280;34915;52.926;11.116;2022-08-19T01:52:36;100992.22;;;20.69;100.00
49104;BME280;34915;52.926;11.116;2022-08-19T01:55:06;100999.56;;;20.67;100.00
49104;BME280;34915;52.926;11.116;2022-08-19T01:57:32;100986.84;;;20.69;100.00
49104;BME280;34915;52.926;11.116;2022-08-19T01:59:58;100992.53;;;20.66;100.00
49104;BME280;34915;52.926;11.116;2022-08-19T02:02:25;100994.84;;;20.61;100.00
49104;BME280;34915;52.926;11.116;2022-08-19T02:04:50;100988.47;;;20.62;100.00
49104;BME280;34915;52.926;11.116;2022-08-19T02:07:19;100977.03;;;20.60;100.00
49104;BME280;34915;52.926;11.116;2022-08-19T02:09:46;100981.13;;;20.72;100.00
49104;BME280;34915;52.926;11.116;2022-08-19T02:12:12;100974.34;;;20.68;100.00
49104;BME280;34915;52.926;11.116;2022-08-19T02:14:38;100959.22;;;20.75;99.49
49104;BME280;34915;52.926;11.116;2022-08-19T02:17:03;100968.59;;;20.55;100.00
49104;BME280;34915;52.926;11.116;2022-08-19T02:19:29;100972.94;;;20.48;100.00
49104;BME280;34915;52.926;11.116;2022-08-19T02:21:57;100975.16;;;20.52;100.00
49104;BME280;34915;52.926;11.116;2022-08-19T02:24:22;100962.19;;;20.64;100.00
49104;BME280;34915;52.926;11.116;2022-08-19T02:26:48;100962.88;;;20.58;99.92
49104;BME280;34915;52.926;11.116;2022-08-19T02:29:14;100957.13;;;20.45;100.00
49104;BME280;34915;52.926;11.116;2022-08-19T02:31:40;100960.47;;;20.31;100.00
49104;BME280;34915;52.926;11.116;2022-08-19T02:34:06;100969.50;;;20.14;100.00
49104;BME280;34915;52.926;11.116;2022-08-19T02:36:31;100970.16;;;20.08;100.00
49104;BME280;34915;52.926;11.116;2022-08-19T02:38:57;100970.81;;;20.02;100.00
49104;BME280;34915;52.926;11.116;2022-08-19T02:41:27;100966.09;;;19.96;100.00
49104;BME280;34915;52.926;11.116;2022-08-19T02:43:56;100976.53;;;19.99;100.00
49104;BME280;34915;52.926;11.116;2022-08-19T02:46:28;100976.84;;;19.96;100.00
49104;BME280;34915;52.926;11.116;2022-08-19T02:48:56;100982.22;;;19.96;100.00
49104;BME280;34915;52.926;11.116;2022-08-19T02:51:29;100981.91;;;19.99;100.00
49104;BME280;34915;52.926;11.116;2022-08-19T02:53:55;100985.25;;;20.01;100.00
49104;BME280;34915;52.926;11.116;2022-08-19T02:56:22;100980.75;;;20.02;100.00
49104;BME280;34915;52.926;11.116;2022-08-19T02:58:49;100970.03;;;20.18;100.00
49104;BME280;34915;52.926;11.116;2022-08-19T03:01:31;100958.47;;;20.25;100.00
49104;BME280;34915;52.926;11.116;2022-08-19T03:04:01;100967.06;;;20.36;100.00
49104;BME280;34915;52.926;11.116;2022-08-19T03:06:27;100947.69;;;20.33;100.00
49104;BME280;34915;52.926;11.116;2022-08-19T03:08:53;100963.19;;;20.39;100.00
49104;BME280;34915;52.926;11.116;2022-08-19T03:11:25;100960.81;;;20.28;100.00
49104;BME280;34915;52.926;11.116;2022-08-19T03:13:51;100965.19;;;20.37;100.00
49104;BME280;34915;52.926;11.116;2022-08-19T03:16:23;100979.81;;;20.27;100.00
49104;BME280;34915;52.926;11.116;2022-08-19T03:18:50;100988.00;;;20.17;100.00
49104;BME280;34915;52.926;11.116;2022-08-19T03:21:27;100999.44;;;20.11;100.00
49104;BME280;34915;52.926;11.116;2022-08-19T03:23:58;100993.31;;;19.93;100.00
49104;BME280;34915;52.926;11.116;2022-08-19T03:26:24;101009.44;;;19.93;100.00
49104;BME280;34915;52.926;11.116;2022-08-19T03:28:49;101005.44;;;19.97;100.00
49104;BME280;34915;52.926;11.116;2022-08-19T03:31:18;100994.69;;;19.97;100.00
49104;BME280;34915;52.926;11.116;2022-08-19T03:33:44;100994.91;;;20.12;100.00
49104;BME280;34915;52.926;11.116;2022-08-19T03:38:38;100991.28;;;19.95;100.00
49104;BME280;34915;52.926;11.116;2022-08-19T03:41:06;100996.66;;;19.95;100.00
49104;BME280;34915;52.926;11.116;2022-08-19T03:43:34;101009.44;;;19.93;100.00
49104;BME280;34915;52.926;11.116;2022-08-19T03:46:11;101002.69;;;19.89;100.00
49104;BME280;34915;52.926;11.116;2022-08-19T03:48:39;101004.06;;;19.93;100.00
49104;BME280;34915;52.926;11.116;2022-08-19T03:51:33;101002.69;;;19.89;100.00
49104;BME280;34915;52.926;11.116;2022-08-19T03:54:03;101009.00;;;19.80;100.00
49104;BME280;34915;52.926;11.116;2022-08-19T03:56:30;101007.31;;;19.79;100.00
49104;BME280;34915;52.926;11.116;2022-08-19T03:58:57;101009.78;;;19.90;100.00
49104;BME280;34915;52.926;11.116;2022-08-19T04:01:28;101006.09;;;19.91;100.00
49104;BME280;34915;52.926;11.116;2022-08-19T04:03:56;101006.09;;;19.91;100.00
49104;BME280;34915;52.926;11.116;2022-08-19T04:06:30;101009.28;;;19.87;100.00
49104;BME280;34915;52.926;11.116;2022-08-19T04:08:58;101010.50;;;20.00;100.00
49104;BME280;34915;52.926;11.116;2022-08-19T04:11:27;101003.41;;;19.91;100.00
49104;BME280;34915;52.926;11.116;2022-08-19T04:13:53;101010.13;;;19.95;100.00
49104;BME280;34915;52.926;11.116;2022-08-19T04:16:22;101013.47;;;19.89;100.00
49104;BME280;34915;52.926;11.116;2022-08-19T04:18:48;101005.34;;;19.81;100.00
49104;BME280;34915;52.926;11.116;2022-08-19T04:21:19;101007.31;;;19.79;100.00
49104;BME280;34915;52.926;11.116;2022-08-19T04:23:46;101010.00;;;19.79;100.00
49104;BME280;34915;52.926;11.116;2022-08-19T04:26:18;101010.66;;;19.74;100.00
49104;BME280;34915;52.926;11.116;2022-08-19T04:28:45;101002.56;;;19.66;100.00
49104;BME280;34915;52.926;11.116;2022-08-19T04:31:26;101010.31;;;19.69;100.00
49104;BME280;34915;52.926;11.116;2022-08-19T04:33:57;101009.97;;;19.72;100.00
49104;BME280;34915;52.926;11.116;2022-08-19T04:36:28;101006.31;;;19.73;100.00
49104;BME280;34915;52.926;11.116;2022-08-19T04:38:56;101006.31;;;19.80;100.00
49104;BME280;34915;52.926;11.116;2022-08-19T04:41:23;101015.78;;;19.84;100.00
49104;BME280;34915;52.926;11.116;2022-08-19T04:44:07;101022.94;;;19.76;100.00
49104;BME280;34915;52.926;11.116;2022-08-19T04:46:33;101023.69;;;19.86;100.00
49104;BME280;34915;52.926;11.116;2022-08-19T04:49:00;101025.41;;;19.87;100.00
49104;BME280;34915;52.926;11.116;2022-08-19T04:51:26;101015.88;;;20.00;100.00
49104;BME280;34915;52.926;11.116;2022-08-19T04:53:52;101016.94;;;20.07;100.00
49104;BME280;34915;52.926;11.116;2022-08-19T04:56:19;101012.50;;;19.98;100.00
49104;BME280;34915;52.926;11.116;2022-08-19T04:58:52;101013.50;;;19.97;100.00
49104;BME280;34915;52.926;11.116;2022-08-19T05:01:22;101019.88;;;19.96;100.00
49104;BME280;34915;52.926;11.116;2022-08-19T05:03:48;101019.88;;;19.96;100.00
49104;BME280;34915;52.926;11.116;2022-08-19T05:06:15;101019.56;;;19.99;100.00
49104;BME280;34915;52.926;11.116;2022-08-19T05:08:41;101008.09;;;19.89;100.00
49104;BME280;34915;52.926;11.116;2022-08-19T05:13:39;101006.50;;;20.12;100.00
49104;BME280;34915;52.926;11.116;2022-08-19T05:16:05;101012.28;;;20.25;100.00
49104;BME280;34915;52.926;11.116;2022-08-19T05:18:31;101013.94;;;20.26;100.00
49104;BME280;34915;52.926;11.116;2022-08-19T05:21:18;101015.28;;;20.22;100.00
49104;BME280;34915;52.926;11.116;2022-08-19T05:24:04;101005.50;;;20.13;100.00
49104;BME280;34915;52.926;11.116;2022-08-19T05:26:35;101007.50;;;20.11;100.00
49104;BME280;34915;52.926;11.116;2022-08-19T05:29:01;100995.09;;;20.10;100.00
49104;BME280;34915;52.926;11.116;2022-08-19T05:31:27;101002.44;;;20.08;100.00
49104;BME280;34915;52.926;11.116;2022-08-19T05:33:53;101012.56;;;20.14;100.00
49104;BME280;34915;52.926;11.116;2022-08-19T05:36:18;101007.66;;;20.10;100.00
49104;BME280;34915;52.926;11.116;2022-08-19T05:38:45;101013.22;;;20.08;100.00
49104;BME280;34915;52.926;11.116;2022-08-19T05:41:14;101003.09;;;20.02;100.00
49104;BME280;34915;52.926;11.116;2022-08-19T05:43:40;101007.59;;;19.94;100.00
49104;BME280;34915;52.926;11.116;2022-08-19T05:46:07;101003.44;;;19.99;100.00
49104;BME280;34915;52.926;11.116;2022-08-19T05:48:34;101006.47;;;20.04;100.00
49104;BME280;34915;52.926;11.116;2022-08-19T05:51:04;101006.66;;;20.11;100.00
49104;BME280;34915;52.926;11.116;2022-08-19T05:53:32;101007.66;;;20.02;100.00
49104;BME280;34915;52.926;11.116;2022-08-19T05:56:07;101010.84;;;20.05;100.00
49104;BME280;34915;52.926;11.116;2022-08-19T05:58:34;101011.16;;;19.94;100.00
49104;BME280;34915;52.926;11.116;2022-08-19T06:01:00;101004.91;;;19.94;100.00
49104;BME280;34915;52.926;11.116;2022-08-19T06:03:33;101010.09;;;19.87;100.00
49104;BME280;34915;52.926;11.116;2022-08-19T06:05:59;100998.19;;;19.90;100.00
49104;BME280;34915;52.926;11.116;2022-08-19T06:08:26;101007.75;;;19.92;100.00
49104;BME280;34915;52.926;11.116;2022-08-19T06:10:52;101007.59;;;19.94;100.00
49104;BME280;34915;52.926;11.116;2022-08-19T06:13:19;101021.00;;;20.19;100.00
49104;BME280;34915;52.926;11.116;2022-08-19T06:15:46;101012.53;;;20.06;100.00
49104;BME280;34915;52.926;11.116;2022-08-19T06:18:15;101020.63;;;20.06;100.00
49104;BME280;34915;52.926;11.116;2022-08-19T06:20:41;101021.59;;;19.97;100.00
49104;BME280;34915;52.926;11.116;2022-08-19T06:23:08;101020.94;;;20.03;100.00
49104;BME280;34915;52.926;11.116;2022-08-19T06:25:34;101000.00;;;19.89;100.00
49104;BME280;34915;52.926;11.116;2022-08-19T06:28:00;101014.50;;;19.96;100.00
49104;BME280;34915;52.926;11.116;2022-08-19T06:30:26;101010.59;;;19.91;100.00
49104;BME280;34915;52.926;11.116;2022-08-19T06:32:53;101007.75;;;19.92;100.00
49104;BME280;34915;52.926;11.116;2022-08-19T06:35:18;101016.53;;;19.94;100.00
49104;BME280;34915;52.926;11.116;2022-08-19T06:37:44;101009.31;;;20.03;100.00
49104;BME280;34915;52.926;11.116;2022-08-19T06:40:10;101005.44;;;19.97;100.00
49104;BME280;34915;52.926;11.116;2022-08-19T06:42:38;101012.50;;;19.98;100.00
49104;BME280;34915;52.926;11.116;2022-08-19T06:45:05;101023.25;;;19.98;100.00
49104;BME280;34915;52.926;11.116;2022-08-19T06:47:33;101028.63;;;19.98;100.00
49104;BME280;34915;52.926;11.116;2022-08-19T06:49:59;101033.84;;;20.00;100.00
49104;BME280;34915;52.926;11.116;2022-08-19T06:52:33;101032.41;;;20.13;100.00
49104;BME280;34915;52.926;11.116;2022-08-19T06:55:00;101026.81;;;20.07;100.00
49104;BME280;34915;52.926;11.116;2022-08-19T06:57:26;101027.81;;;19.98;100.00
49104;BME280;34915;52.926;11.116;2022-08-19T06:59:52;101050.44;;;20.21;100.00
49104;BME280;34915;52.926;11.116;2022-08-19T07:02:18;101054.69;;;20.39;100.00
49104;BME280;34915;52.926;11.116;2022-08-19T07:04:45;101054.69;;;20.39;100.00
49104;BME280;34915;52.926;11.116;2022-08-19T07:07:14;101044.63;;;20.49;100.00
49104;BME280;34915;52.926;11.116;2022-08-19T07:09:42;101054.41;;;20.50;100.00
49104;BME280;34915;52.926;11.116;2022-08-19T07:12:13;101061.66;;;20.57;100.00
49104;BME280;34915;52.926;11.116;2022-08-19T07:14:42;101068.59;;;20.60;100.00
49104;BME280;34915;52.926;11.116;2022-08-19T07:17:10;101070.56;;;20.58;100.00
49104;BME280;34915;52.926;11.116;2022-08-19T07:19:38;101064.47;;;20.48;100.00
49104;BME280;34915;52.926;11.116;2022-08-19T07:22:06;101057.94;;;20.50;100.00
49104;BME280;34915;52.926;11.116;2022-08-19T07:24:32;101063.81;;;20.38;100.00
49104;BME280;34915;52.926;11.116;2022-08-19T07:27:01;101056.41;;;20.48;100.00
49104;BME280;34915;52.926;11.116;2022-08-19T07:29:29;101064.81;;;20.45;100.00
49104;BME280;34915;52.926;11.116;2022-08-19T07:31:57;101066.16;;;20.41;100.00
49104;BME280;34915;52.926;11.116;2022-08-19T07:34:24;101076.94;;;20.49;100.00
49104;BME280;34915;52.926;11.116;2022-08-19T07:36:50;101074.28;;;20.57;100.00
49104;BME280;34915;52.926;11.116;2022-08-19T07:39:20;101084.34;;;20.47;100.00
49104;BME280;34915;52.926;11.116;2022-08-19T07:41:47;101087.94;;;20.55;100.00
49104;BME280;34915;52.926;11.116;2022-08-19T07:44:14;101088.38;;;20.43;100.00
49104;BME280;34915;52.926;11.116;2022-08-19T07:46:43;101086.34;;;20.45;100.00
49104;BME280;34915;52.926;11.116;2022-08-19T07:49:13;101081.69;;;20.55;100.00
49104;BME280;34915;52.926;11.116;2022-08-19T07:51:50;101088.56;;;20.49;100.00
49104;BME280;34915;52.926;11.116;2022-08-19T07:54:17;101085.41;;;20.54;100.00
49104;BME280;34915;52.926;11.116;2022-08-19T07:56:43;101084.13;;;20.74;100.00
49104;BME280;34915;52.926;11.116;2022-08-19T07:59:08;101090.28;;;20.66;100.00
49104;BME280;34915;52.926;11.116;2022-08-19T08:01:36;101078.81;;;20.56;100.00
49104;BME280;34915;52.926;11.116;2022-08-19T08:04:02;101095.06;;;20.72;100.00
49104;BME280;34915;52.926;11.116;2022-08-19T08:06:46;101100.13;;;20.75;100.00
49104;BME280;34915;52.926;11.116;2022-08-19T08:09:35;101109.72;;;20.77;100.00
49104;BME280;34915;52.926;11.116;2022-08-19T08:12:06;101099.63;;;20.72;100.00
49104;BME280;34915;52.926;11.116;2022-08-19T08:14:38;101100.66;;;20.78;100.00
49104;BME280;34915;52.926;11.116;2022-08-19T08:17:05;101100.13;;;20.75;100.00
49104;BME280;34915;52.926;11.116;2022-08-19T08:19:31;101104.72;;;20.90;100.00
49104;BME280;34915;52.926;11.116;2022-08-19T08:21:59;101099.50;;;20.97;100.00
49104;BME280;34915;52.926;11.116;2022-08-19T08:24:28;101096.97;;;20.95;100.00
49104;BME280;34915;52.926;11.116;2022-08-19T08:26:54;101102.34;;;20.95;100.00
49104;BME280;34915;52.926;11.116;2022-08-19T08:29:20;101100.69;;;20.94;100.00
49104;BME280;34915;52.926;11.116;2022-08-19T08:31:47;101097.28;;;20.92;100.00
49104;BME280;34915;52.926;11.116;2022-08-19T08:34:13;101109.44;;;20.96;100.00
49104;BME280;34915;52.926;11.116;2022-08-19T08:36:44;101115.50;;;20.90;100.00
49104;BME280;34915;52.926;11.116;2022-08-19T08:39:15;101114.44;;;20.83;100.00
49104;BME280;34915;52.926;11.116;2022-08-19T08:44:26;101118.53;;;20.95;100.00
49104;BME280;34915;52.926;11.116;2022-08-19T08:47:03;101119.69;;;20.93;100.00
49104;BME280;34915;52.926;11.116;2022-08-19T08:49:52;101122.25;;;20.94;100.00
49104;BME280;34915;52.926;11.116;2022-08-19T08:52:24;101124.25;;;20.92;100.00
49104;BME280;34915;52.926;11.116;2022-08-19T08:54:53;101123.19;;;20.85;100.00
49104;BME280;34915;52.926;11.116;2022-08-19T08:57:35;101128.25;;;20.88;100.00
49104;BME280;34915;52.926;11.116;2022-08-19T09:00:05;101109.09;;;20.99;99.92
49104;BME280;34915;52.926;11.116;2022-08-19T09:02:32;101115.19;;;21.09;100.00
49104;BME280;34915;52.926;11.116;2022-08-19T09:04:58;101113.50;;;21.08;99.93
49104;BME280;34915;52.926;11.116;2022-08-19T09:10:44;101114.69;;;21.22;98.80
49104;BME280;34915;52.926;11.116;2022-08-19T09:16:00;101115.53;;;21.06;99.40
49104;BME280;34915;52.926;11.116;2022-08-19T09:18:39;101119.75;;;21.17;99.22
49104;BME280;34915;52.926;11.116;2022-08-19T09:21:08;101121.91;;;21.13;97.65
49104;BME280;34915;52.926;11.116;2022-08-19T09:23:36;101132.03;;;21.03;99.47
49104;BME280;34915;52.926;11.116;2022-08-19T09:26:10;101125.63;;;21.12;99.36
49104;BME280;34915;52.926;11.116;2022-08-19T09:28:40;101131.03;;;21.20;98.51
49104;BME280;34915;52.926;11.116;2022-08-19T09:31:12;101136.09;;;21.23;97.17
49104;BME280;34915;52.926;11.116;2022-08-19T09:33:38;101133.72;;;21.20;97.88
49104;BME280;34915;52.926;11.116;2022-08-19T09:36:09;101136.94;;;21.24;97.18
49104;BME280;34915;52.926;11.116;2022-08-19T09:38:36;101122.06;;;21.12;97.86
49104;BME280;34915;52.926;11.116;2022-08-19T09:41:06;101134.38;;;21.06;99.85
49104;BME280;34915;52.926;11.116;2022-08-19T09:43:33;101124.28;;;21.08;100.00
49104;BME280;34915;52.926;11.116;2022-08-19T09:46:03;101139.78;;;21.06;100.00
49104;BME280;34915;52.926;11.116;2022-08-19T09:48:32;101130.69;;;21.15;100.00
49104;BME280;34915;52.926;11.116;2022-08-19T09:53:29;101128.69;;;21.33;99.59
49104;BME280;34915;52.926;11.116;2022-08-19T09:55:55;101122.97;;;21.44;96.46
49104;BME280;34915;52.926;11.116;2022-08-19T09:58:21;101121.31;;;21.51;96.61
49104;BME280;34915;52.926;11.116;2022-08-19T10:00:48;101120.31;;;21.52;96.25
49104;BME280;34915;52.926;11.116;2022-08-19T10:03:13;101123.34;;;21.65;96.17
49104;BME280;34915;52.926;11.116;2022-08-19T10:05:39;101133.28;;;21.64;95.36
49104;BME280;34915;52.926;11.116;2022-08-19T10:08:15;101127.38;;;21.61;95.94
49104;BME280;34915;52.926;11.116;2022-08-19T10:10:42;101117.44;;;21.61;95.09
49104;BME280;34915;52.926;11.116;2022-08-19T10:13:12;101131.41;;;21.57;95.75
49104;BME280;34915;52.926;11.116;2022-08-19T10:15:38;101132.44;;;21.64;94.45
49104;BME280;34915;52.926;11.116;2022-08-19T10:18:07;101139.19;;;21.68;94.00
49104;BME280;34915;52.926;11.116;2022-08-19T10:20:33;101136.16;;;21.63;94.38
49104;BME280;34915;52.926;11.116;2022-08-19T10:23:01;101139.53;;;21.65;94.22
49104;BME280;34915;52.926;11.116;2022-08-19T10:25:27;101135.13;;;21.72;95.02
49104;BME280;34915;52.926;11.116;2022-08-19T10:27:53;101134.63;;;21.68;95.03
49104;BME280;34915;52.926;11.116;2022-08-19T10:30:19;101135.81;;;21.66;95.33
49104;BME280;34915;52.926;11.116;2022-08-19T10:32:45;101129.22;;;21.52;95.91
49104;BME280;34915;52.926;11.116;2022-08-19T10:35:12;101132.75;;;21.61;95.64
49104;BME280;34915;52.926;11.116;2022-08-19T10:37:38;101130.75;;;21.63;94.91
49104;BME280;34915;52.926;11.116;2022-08-19T10:40:08;101129.75;;;21.56;94.43
49104;BME280;34915;52.926;11.116;2022-08-19T10:42:35;101132.09;;;21.51;95.58
49104;BME280;34915;52.926;11.116;2022-08-19T10:45:02;101133.47;;;21.47;95.50
49104;BME280;34915;52.926;11.116;2022-08-19T10:47:28;101127.66;;;21.42;96.96
49104;BME280;34915;52.926;11.116;2022-08-19T10:49:54;101126.34;;;21.54;95.90
49104;BME280;34915;52.926;11.116;2022-08-19T10:52:46;101142.88;;;21.59;95.86
49104;BME280;34915;52.926;11.116;2022-08-19T10:55:12;101134.13;;;21.49;95.77
49104;BME280;34915;52.926;11.116;2022-08-19T10:57:56;101131.75;;;21.54;96.04
49104;BME280;34915;52.926;11.116;2022-08-19T11:00:23;101126.69;;;21.51;95.48
49104;BME280;34915;52.926;11.116;2022-08-19T11:02:50;101126.00;;;21.57;96.01
49104;BME280;34915;52.926;11.116;2022-08-19T11:05:15;101111.22;;;21.53;95.45
49104;BME280;34915;52.926;11.116;2022-08-19T11:07:43;101120.78;;;21.55;95.34
49104;BME280;34915;52.926;11.116;2022-08-19T11:10:12;101116.91;;;21.58;95.97
49104;BME280;34915;52.926;11.116;2022-08-19T11:12:39;101110.84;;;21.48;95.20
49104;BME280;34915;52.926;11.116;2022-08-19T11:15:07;101111.72;;;21.48;96.48
49104;BME280;34915;52.926;11.116;2022-08-19T11:17:34;101108.50;;;21.53;96.31
49104;BME280;34915;52.926;11.116;2022-08-19T11:20:01;101108.50;;;21.53;96.35
49104;BME280;34915;52.926;11.116;2022-08-19T11:22:30;101110.34;;;21.60;96.31
49104;BME280;34915;52.926;11.116;2022-08-19T11:24:55;101113.56;;;21.72;95.16
49104;BME280;34915;52.926;11.116;2022-08-19T11:27:21;101107.63;;;21.68;95.68
49104;BME280;34915;52.926;11.116;2022-08-19T11:29:46;101108.16;;;21.72;96.01
49104;BME280;34915;52.926;11.116;2022-08-19T11:32:12;101100.38;;;21.77;94.95
49104;BME280;34915;52.926;11.116;2022-08-19T11:34:38;101090.28;;;21.71;94.44
49104;BME280;34915;52.926;11.116;2022-08-19T11:37:06;101104.44;;;21.80;94.84
49104;BME280;34915;52.926;11.116;2022-08-19T11:39:34;101105.78;;;21.77;94.49
49104;BME280;34915;52.926;11.116;2022-08-19T11:42:00;101096.00;;;21.68;94.68
49104;BME280;34915;52.926;11.116;2022-08-19T11:44:46;101093.28;;;21.76;94.78
49104;BME280;34915;52.926;11.116;2022-08-19T11:47:12;101093.97;;;21.70;94.47
49104;BME280;34915;52.926;11.116;2022-08-19T11:49:38;101098.06;;;21.66;95.35
49104;BME280;34915;52.926;11.116;2022-08-19T11:52:03;101094.31;;;21.67;96.04
49104;BME280;34915;52.926;11.116;2022-08-19T11:54:29;101089.63;;;21.69;96.38
49104;BME280;34915;52.926;11.116;2022-08-19T11:56:56;101091.59;;;21.82;95.30
49104;BME280;34915;52.926;11.116;2022-08-19T11:59:21;101088.91;;;21.82;95.70
49104;BME280;34915;52.926;11.116;2022-08-19T12:01:47;101091.25;;;21.93;94.17
49104;BME280;34915;52.926;11.116;2022-08-19T12:04:12;101095.56;;;22.10;94.14
49104;BME280;34915;52.926;11.116;2022-08-19T12:06:40;101092.50;;;22.29;94.16
49104;BME280;34915;52.926;11.116;2022-08-19T12:09:08;101095.13;;;22.53;90.76
49104;BME280;34915;52.926;11.116;2022-08-19T12:11:35;101089.41;;;22.48;92.41
49104;BME280;34915;52.926;11.116;2022-08-19T12:14:02;101094.97;;;22.46;89.83
49104;BME280;34915;52.926;11.116;2022-08-19T12:16:29;101096.50;;;22.41;92.00
49104;BME280;34915;52.926;11.116;2022-08-19T12:18:57;101110.53;;;22.36;90.45
49104;BME280;34915;52.926;11.116;2022-08-19T12:21:26;101103.66;;;22.26;90.87
49104;BME280;34915;52.926;11.116;2022-08-19T12:23:55;101102.63;;;22.19;91.13
49104;BME280;34915;52.926;11.116;2022-08-19T12:26:21;101111.78;;;22.18;93.10
49104;BME280;34915;52.926;11.116;2022-08-19T12:28:47;101118.53;;;22.22;91.92
49104;BME280;34915;52.926;11.116;2022-08-19T12:31:14;101115.13;;;22.20;92.22
49104;BME280;34915;52.926;11.116;2022-08-19T12:33:41;101107.41;;;22.09;92.81
49104;BME280;34915;52.926;11.116;2022-08-19T12:36:09;101126.97;;;22.27;92.34
49104;BME280;34915;52.926;11.116;2022-08-19T12:38:36;101133.38;;;22.18;91.96
49104;BME280;34915;52.926;11.116;2022-08-19T12:41:03;101116.50;;;22.08;92.95
49104;BME280;34915;52.926;11.116;2022-08-19T12:43:32;101124.44;;;22.10;93.21
49104;BME280;34915;52.926;11.116;2022-08-19T12:45:58;101136.41;;;22.07;93.02
49104;BME280;34915;52.926;11.116;2022-08-19T12:48:24;101133.75;;;21.99;93.47
49104;BME280;34915;52.926;11.116;2022-08-19T12:50:49;101129.72;;;21.87;94.01
49104;BME280;34915;52.926;11.116;2022-08-19T12:53:15;101129.03;;;21.85;94.58
49104;BME280;34915;52.926;11.116;2022-08-19T12:55:43;101128.38;;;21.83;94.18